Time;durP1;ratioP1;P1;durP2;ratioP2;P2;SDS_P1;SDS_P2;PMS_P1;PMS_P2;Temp;Humidity;BMP_temperature;BMP_pressure;BME280_temperature;BME280_humidity;BME280_pressure;Samples;Min_cycle;Max_cycle;Signal;HPM_P1;HPM_P2
2023/07/25 00:01:18;;;;;;;17.50;11.82;;;15.30;99.90;;;;;;4980912;28;20117;-66
2023/07/25 00:03:46;;;;;;;19.77;13.00;;;15.30;99.90;;;;;;4974221;28;20029;-63
2023/07/25 00:06:12;;;;;;;13.82;10.05;;;15.30;99.90;;;;;;4974781;28;20037;-64
2023/07/25 00:08:38;;;;;;;18.90;11.32;;;15.30;99.90;;;;;;4959279;28;20019;-64
2023/07/25 00:11:03;;;;;;;18.30;11.43;;;15.30;99.90;;;;;;4978996;28;20080;-64
2023/07/25 00:13:30;;;;;;;18.17;11.60;;;15.30;99.90;;;;;;4977504;28;20031;-63
2023/07/25 00:15:56;;;;;;;17.35;11.20;;;15.40;99.90;;;;;;4988410;28;20018;-64
2023/07/25 00:18:22;;;;;;;20.73;12.68;;;15.30;99.90;;;;;;4988378;28;20030;-64
2023/07/25 00:20:47;;;;;;;14.13;11.20;;;15.30;99.90;;;;;;4987285;28;20041;-64
2023/07/25 00:23:13;;;;;;;17.70;12.60;;;15.30;99.90;;;;;;4989138;28;20975;-63
2023/07/25 00:25:39;;;;;;;17.63;11.20;;;15.30;99.90;;;;;;4984591;28;20488;-63
2023/07/25 00:28:04;;;;;;;20.48;12.30;;;15.30;99.90;;;;;;4984995;28;20022;-65
2023/07/25 00:30:30;;;;;;;20.23;10.95;;;15.40;99.90;;;;;;4978628;28;20125;-65
2023/07/25 00:32:55;;;;;;;17.10;11.70;;;15.40;99.90;;;;;;4979808;28;20030;-65
2023/07/25 00:35:21;;;;;;;20.38;12.32;;;15.40;99.90;;;;;;4968487;28;20026;-64
2023/07/25 00:37:47;;;;;;;19.42;13.32;;;15.40;99.90;;;;;;4982629;28;20544;-64
2023/07/25 00:40:13;;;;;;;24.45;13.82;;;15.40;99.90;;;;;;4967571;28;20034;-65
2023/07/25 00:42:38;;;;;;;22.55;13.80;;;15.40;99.90;;;;;;4983127;28;20037;-65
2023/07/25 00:45:04;;;;;;;22.50;14.32;;;15.40;99.90;;;;;;4983987;28;20117;-64
2023/07/25 00:47:30;;;;;;;19.48;13.23;;;15.30;99.90;;;;;;4987187;28;20099;-64
2023/07/25 00:49:57;;;;;;;24.30;13.40;;;15.40;99.90;;;;;;4970486;28;20504;-65
2023/07/25 00:52:22;;;;;;;18.92;12.35;;;15.40;99.90;;;;;;4989093;28;20118;-64
2023/07/25 00:54:49;;;;;;;28.25;14.25;;;15.40;99.90;;;;;;4983277;28;20182;-64
2023/07/25 00:57:17;;;;;;;26.30;12.63;;;15.40;99.90;;;;;;4969370;28;20035;-65
2023/07/25 00:59:43;;;;;;;22.23;13.82;;;15.40;99.90;;;;;;4985895;28;20019;-65
2023/07/25 01:02:09;;;;;;;20.27;12.98;;;15.40;99.90;;;;;;4985296;28;20038;-65
2023/07/25 01:04:37;;;;;;;22.40;13.55;;;15.40;99.90;;;;;;4979965;28;20022;-65
2023/07/25 01:07:04;;;;;;;22.92;14.48;;;15.40;99.90;;;;;;4981637;28;20062;-65
2023/07/25 01:09:41;;;;;;;25.20;14.82;;;15.40;99.90;;;;;;4983826;28;20014;-60
2023/07/25 01:12:08;;;;;;;21.58;14.90;;;15.40;99.90;;;;;;4988283;28;20430;-64
2023/07/25 01:14:35;;;;;;;27.80;14.60;;;15.40;99.90;;;;;;4983491;28;20402;-64
2023/07/25 01:17:12;;;;;;;22.75;14.00;;;15.40;99.90;;;;;;4979149;28;20015;-64
2023/07/25 01:19:44;;;;;;;19.88;13.05;;;15.40;99.90;;;;;;4979067;28;20181;-60
2023/07/25 01:22:11;;;;;;;24.35;12.68;;;15.30;99.90;;;;;;4974083;28;20654;-63
2023/07/25 01:24:42;;;;;;;22.00;10.43;;;15.30;99.90;;;;;;4980600;28;20093;-63
2023/07/25 01:27:07;;;;;;;21.00;12.00;;;15.10;99.90;;;;;;4969081;28;20042;-65
2023/07/25 01:29:33;;;;;;;20.40;11.38;;;15.00;99.90;;;;;;4981772;28;20031;-63
2023/07/25 01:31:59;;;;;;;15.50;10.05;;;14.90;99.90;;;;;;4986292;28;20022;-63
2023/07/25 01:34:24;;;;;;;14.15;9.30;;;14.90;99.90;;;;;;4984466;28;20373;-64
2023/07/25 01:36:50;;;;;;;17.73;9.50;;;14.80;99.90;;;;;;4988758;28;20026;-65
2023/07/25 01:39:15;;;;;;;25.00;9.18;;;14.80;99.90;;;;;;4982375;28;20046;-64
2023/07/25 01:41:43;;;;;;;17.60;8.60;;;14.70;99.90;;;;;;4985201;28;20049;-64
2023/07/25 01:44:09;;;;;;;12.02;7.35;;;14.70;99.90;;;;;;4990013;28;20388;-65
2023/07/25 01:46:35;;;;;;;17.58;7.05;;;14.60;99.90;;;;;;4988682;28;20030;-61
2023/07/25 01:49:00;;;;;;;13.15;6.60;;;14.50;99.90;;;;;;4993972;28;20040;-64
2023/07/25 01:51:26;;;;;;;12.82;5.65;;;14.40;99.90;;;;;;4986135;28;20044;-64
2023/07/25 01:53:53;;;;;;;8.10;5.22;;;14.40;99.90;;;;;;4990193;28;20058;-65
2023/07/25 01:56:20;;;;;;;11.27;5.30;;;14.30;99.90;;;;;;4974122;28;20070;-60
2023/07/25 01:58:45;;;;;;;11.68;4.75;;;14.20;99.90;;;;;;4972031;28;20109;-64
2023/07/25 02:01:11;;;;;;;13.70;5.32;;;14.00;99.90;;;;;;4981061;28;20105;-63
2023/07/25 02:03:36;;;;;;;11.85;4.57;;;14.00;99.90;;;;;;4983070;28;20121;-63
2023/07/25 02:06:03;;;;;;;8.80;5.28;;;14.00;99.90;;;;;;4986008;28;20034;-65
2023/07/25 02:08:29;;;;;;;10.48;5.55;;;13.90;99.90;;;;;;4991561;28;20034;-63
2023/07/25 02:10:55;;;;;;;11.73;6.50;;;13.90;99.90;;;;;;4989795;28;20042;-64
2023/07/25 02:13:20;;;;;;;13.90;6.38;;;13.90;99.90;;;;;;4991667;28;20030;-66
2023/07/25 02:15:46;;;;;;;14.90;6.03;;;13.90;99.90;;;;;;4991371;28;20027;-64
2023/07/25 02:18:11;;;;;;;13.00;5.85;;;13.90;99.90;;;;;;4991512;28;20046;-64
2023/07/25 02:20:38;;;;;;;10.68;5.80;;;13.90;99.90;;;;;;4991032;28;20034;-63
2023/07/25 02:23:03;;;;;;;9.77;5.90;;;13.90;99.90;;;;;;4988484;28;20026;-63
2023/07/25 02:25:29;;;;;;;12.75;5.75;;;13.90;99.90;;;;;;4990171;28;20035;-65
2023/07/25 02:27:54;;;;;;;8.48;4.65;;;13.90;99.90;;;;;;4991784;28;20030;-64
2023/07/25 02:30:21;;;;;;;14.25;5.75;;;13.90;99.90;;;;;;4991318;28;20072;-61
2023/07/25 02:32:47;;;;;;;15.73;5.70;;;13.80;99.90;;;;;;4972770;28;20463;-63
2023/07/25 02:35:14;;;;;;;8.48;5.20;;;13.80;99.90;;;;;;4987025;28;20096;-66
2023/07/25 02:37:40;;;;;;;9.88;5.68;;;13.80;99.90;;;;;;4986298;28;20048;-63
2023/07/25 02:40:06;;;;;;;8.50;5.35;;;13.70;99.90;;;;;;4988375;28;20033;-65
2023/07/25 02:42:32;;;;;;;10.07;6.05;;;13.70;99.90;;;;;;4988190;28;20034;-65
2023/07/25 02:44:58;;;;;;;9.68;6.38;;;13.70;99.90;;;;;;4982529;28;20365;-63
2023/07/25 02:47:23;;;;;;;13.05;5.85;;;13.60;99.90;;;;;;4991079;28;20038;-64
2023/07/25 02:49:49;;;;;;;10.70;5.43;;;13.60;99.90;;;;;;4980536;28;20041;-64
2023/07/25 02:52:14;;;;;;;12.25;4.68;;;13.60;99.90;;;;;;4982640;28;20034;-66
2023/07/25 02:54:40;;;;;;;14.18;5.60;;;13.60;99.90;;;;;;4989005;28;20097;-62
2023/07/25 02:57:06;;;;;;;12.25;5.20;;;13.70;99.90;;;;;;4954527;28;20504;-63
2023/07/25 02:59:32;;;;;;;9.68;5.38;;;13.70;99.90;;;;;;4991207;28;20054;-64
2023/07/25 03:01:57;;;;;;;6.43;4.88;;;13.70;99.90;;;;;;4979639;28;20065;-64
2023/07/25 03:04:23;;;;;;;14.93;5.18;;;13.70;99.90;;;;;;4983242;28;20035;-62
2023/07/25 03:06:48;;;;;;;10.07;5.22;;;13.70;99.90;;;;;;4970970;28;20117;-64
2023/07/25 03:09:14;;;;;;;9.75;5.82;;;13.70;99.90;;;;;;4976274;28;20066;-63
2023/07/25 03:11:40;;;;;;;7.57;4.75;;;13.60;99.90;;;;;;4961387;28;20022;-63
2023/07/25 03:14:05;;;;;;;10.23;4.80;;;13.60;99.90;;;;;;4983593;28;20076;-64
2023/07/25 03:16:31;;;;;;;10.02;5.22;;;13.60;99.90;;;;;;4972467;28;20045;-63
2023/07/25 03:18:56;;;;;;;7.63;4.65;;;13.70;99.90;;;;;;4988550;28;20026;-64
2023/07/25 03:21:22;;;;;;;8.25;5.47;;;13.60;99.90;;;;;;4987058;28;20026;-64
2023/07/25 03:23:48;;;;;;;9.63;5.15;;;13.60;99.90;;;;;;4963505;28;20033;-62
2023/07/25 03:26:13;;;;;;;9.50;4.38;;;13.60;99.90;;;;;;4958912;28;20058;-64
2023/07/25 03:28:39;;;;;;;7.82;4.53;;;13.60;99.90;;;;;;4981228;28;20097;-63
2023/07/25 03:31:05;;;;;;;8.60;4.93;;;13.50;99.90;;;;;;4980466;28;20479;-65
2023/07/25 03:33:31;;;;;;;7.22;4.03;;;13.50;99.90;;;;;;4989685;28;20407;-61
2023/07/25 03:35:56;;;;;;;10.23;5.28;;;13.50;99.90;;;;;;4990053;28;20033;-64
2023/07/25 03:38:22;;;;;;;10.48;4.13;;;13.50;99.90;;;;;;4978836;28;20037;-63
2023/07/25 03:40:48;;;;;;;11.63;4.70;;;13.50;99.90;;;;;;4971648;28;20031;-64
2023/07/25 03:43:13;;;;;;;12.35;4.47;;;13.50;99.90;;;;;;4990713;28;20065;-63
2023/07/25 03:45:39;;;;;;;7.82;4.90;;;13.50;99.90;;;;;;4974018;28;20037;-64
2023/07/25 03:48:05;;;;;;;6.15;4.65;;;13.50;99.90;;;;;;4987357;28;20492;-64
2023/07/25 03:50:31;;;;;;;7.57;4.75;;;13.50;99.90;;;;;;4989513;28;20040;-65
2023/07/25 03:52:59;;;;;;;7.10;4.32;;;13.50;99.90;;;;;;4988261;28;20027;-64
2023/07/25 03:55:25;;;;;;;10.80;4.90;;;13.50;99.90;;;;;;4988869;28;20030;-64
2023/07/25 03:57:51;;;;;;;7.50;5.30;;;13.50;99.90;;;;;;4963443;28;20047;-64
2023/07/25 04:00:17;;;;;;;11.48;4.93;;;13.50;99.90;;;;;;4971495;28;20668;-61
2023/07/25 04:02:42;;;;;;;9.50;4.43;;;13.40;99.90;;;;;;4989762;28;20509;-64
2023/07/25 04:05:08;;;;;;;8.23;4.43;;;13.50;99.90;;;;;;4989414;28;20037;-64
2023/07/25 04:07:36;;;;;;;9.80;4.53;;;13.50;99.90;;;;;;4985784;28;20410;-63
2023/07/25 04:10:02;;;;;;;12.98;5.18;;;13.50;99.90;;;;;;4988115;28;20045;-64
2023/07/25 04:12:28;;;;;;;10.88;4.78;;;13.50;99.90;;;;;;4988858;28;20030;-63
2023/07/25 04:14:54;;;;;;;9.35;4.85;;;13.40;99.90;;;;;;4988026;28;20022;-64
2023/07/25 04:17:20;;;;;;;10.55;4.65;;;13.50;99.90;;;;;;4992956;28;20026;-65
2023/07/25 04:19:45;;;;;;;10.18;5.30;;;13.50;99.90;;;;;;4986788;28;20475;-64
2023/07/25 04:22:11;;;;;;;11.45;5.47;;;13.50;99.90;;;;;;4985477;28;20026;-63
2023/07/25 04:24:37;;;;;;;8.48;4.85;;;13.50;99.90;;;;;;4989485;28;20092;-63
2023/07/25 04:27:02;;;;;;;7.50;4.72;;;13.50;99.90;;;;;;4990734;28;20038;-64
2023/07/25 04:29:28;;;;;;;9.10;5.05;;;13.40;99.90;;;;;;4989831;28;20069;-63
2023/07/25 04:31:53;;;;;;;10.80;5.13;;;13.40;99.90;;;;;;4986622;28;20034;-64
2023/07/25 04:34:19;;;;;;;7.05;4.80;;;13.40;99.90;;;;;;4989314;28;20041;-63
2023/07/25 04:36:45;;;;;;;11.07;5.47;;;13.40;99.90;;;;;;4984465;28;20606;-63
2023/07/25 04:39:10;;;;;;;8.43;6.22;;;13.40;99.90;;;;;;4979688;28;20039;-64
2023/07/25 04:41:36;;;;;;;9.68;4.95;;;13.50;99.90;;;;;;4986858;28;20027;-64
2023/07/25 04:44:01;;;;;;;10.65;4.78;;;13.50;99.90;;;;;;4989775;28;20404;-63
2023/07/25 04:46:29;;;;;;;12.57;6.10;;;13.60;99.90;;;;;;4983281;28;20092;-64
2023/07/25 04:48:55;;;;;;;8.60;5.03;;;13.60;99.90;;;;;;4987801;28;20029;-64
2023/07/25 04:51:21;;;;;;;7.20;5.22;;;13.70;99.90;;;;;;4970236;28;20022;-64
2023/07/25 04:53:47;;;;;;;10.45;5.50;;;13.70;99.90;;;;;;4985113;28;20049;-63
2023/07/25 04:56:12;;;;;;;7.70;5.45;;;14.00;99.90;;;;;;4982814;28;20030;-63
2023/07/25 04:58:38;;;;;;;11.02;3.95;;;14.80;99.90;;;;;;4977972;28;20096;-64
2023/07/25 05:01:04;;;;;;;8.23;3.67;;;15.90;99.90;;;;;;4976734;28;20117;-65
2023/07/25 05:03:29;;;;;;;7.13;3.45;;;16.70;99.90;;;;;;4982922;28;20391;-65
2023/07/25 05:05:56;;;;;;;5.40;2.92;;;17.80;99.90;;;;;;4969969;28;20032;-64
2023/07/25 05:08:22;;;;;;;4.70;2.15;;;18.40;99.90;;;;;;4987308;28;20034;-63
2023/07/25 05:10:50;;;;;;;5.95;2.58;;;18.90;99.90;;;;;;4979981;28;20035;-64
2023/07/25 05:13:15;;;;;;;5.47;2.47;;;19.20;99.90;;;;;;4977617;28;20031;-65
2023/07/25 05:15:41;;;;;;;10.00;2.70;;;20.00;99.90;;;;;;4982322;28;20050;-64
2023/07/25 05:18:07;;;;;;;7.88;2.65;;;21.10;99.90;;;;;;4984744;28;20022;-65
2023/07/25 05:20:32;;;;;;;5.68;2.75;;;21.30;99.90;;;;;;4979303;28;20097;-65
2023/07/25 05:22:58;;;;;;;10.13;2.40;;;21.60;99.90;;;;;;4990968;28;20100;-64
2023/07/25 05:25:23;;;;;;;6.10;2.38;;;22.30;99.90;;;;;;4991533;28;20054;-65
2023/07/25 05:27:49;;;;;;;6.00;2.42;;;22.70;99.90;;;;;;4992874;28;20038;-66
2023/07/25 05:30:14;;;;;;;3.92;2.22;;;22.80;98.80;;;;;;4990594;28;20037;-65
2023/07/25 05:32:40;;;;;;;10.50;2.50;;;22.30;99.90;;;;;;4990786;28;20106;-65
2023/07/25 05:35:06;;;;;;;7.50;3.15;;;21.80;99.90;;;;;;4977700;28;20033;-64
2023/07/25 05:37:38;;;;;;;5.93;2.60;;;21.40;99.90;;;;;;4987182;28;20040;-65
2023/07/25 05:40:05;;;;;;;7.85;2.50;;;21.00;99.90;;;;;;4992804;28;20062;-64
2023/07/25 05:42:31;;;;;;;7.30;3.00;;;20.30;99.90;;;;;;4993660;28;20034;-65
2023/07/25 05:44:58;;;;;;;8.10;2.97;;;20.40;99.90;;;;;;4989217;28;20037;-62
2023/07/25 05:47:24;;;;;;;5.10;2.40;;;20.20;99.90;;;;;;4990046;28;20705;-65
2023/07/25 05:49:50;;;;;;;5.88;2.55;;;20.10;99.90;;;;;;4990819;28;20030;-64
2023/07/25 05:52:16;;;;;;;3.67;2.67;;;20.00;99.90;;;;;;4989211;28;20030;-64
2023/07/25 05:54:43;;;;;;;11.43;2.80;;;19.50;99.90;;;;;;4993133;28;20101;-64
2023/07/25 05:57:08;;;;;;;8.80;3.20;;;19.30;99.90;;;;;;4968775;28;20104;-65
2023/07/25 05:59:34;;;;;;;6.18;2.80;;;18.60;99.90;;;;;;4964351;28;20267;-64
2023/07/25 06:02:00;;;;;;;6.00;3.83;;;18.40;99.90;;;;;;4982137;28;20030;-63
2023/07/25 06:04:25;;;;;;;6.72;3.60;;;17.90;99.90;;;;;;4984381;28;20022;-61
2023/07/25 06:06:51;;;;;;;8.10;3.22;;;17.60;99.90;;;;;;4986851;28;20038;-65
2023/07/25 06:09:16;;;;;;;9.02;3.90;;;17.30;99.90;;;;;;4980420;28;20043;-62
2023/07/25 06:11:42;;;;;;;6.38;3.25;;;16.90;99.90;;;;;;4986474;28;20522;-64
2023/07/25 06:14:08;;;;;;;9.68;4.18;;;16.80;99.90;;;;;;4975599;28;20027;-64
2023/07/25 06:16:33;;;;;;;10.02;3.30;;;16.60;99.90;;;;;;4985376;28;20081;-64
2023/07/25 06:18:59;;;;;;;8.02;3.55;;;16.60;99.90;;;;;;4962403;28;20047;-65
2023/07/25 06:21:24;;;;;;;10.27;3.45;;;16.50;99.90;;;;;;4979727;28;20476;-64
2023/07/25 06:23:50;;;;;;;4.45;3.10;;;16.50;99.90;;;;;;4992256;28;20492;-64
2023/07/25 06:26:16;;;;;;;7.80;3.35;;;16.50;99.90;;;;;;4972388;28;20034;-65
2023/07/25 06:28:42;;;;;;;6.25;2.80;;;16.40;99.90;;;;;;4992482;28;20428;-63
2023/07/25 06:31:07;;;;;;;6.32;3.70;;;16.40;99.90;;;;;;4987116;28;20018;-63
2023/07/25 06:33:33;;;;;;;5.90;3.08;;;16.30;99.90;;;;;;4990704;28;20419;-63
2023/07/25 06:35:59;;;;;;;10.45;3.28;;;16.40;99.90;;;;;;4986256;28;20018;-63
2023/07/25 06:38:24;;;;;;;12.85;3.40;;;16.40;99.90;;;;;;4979525;28;20521;-65
2023/07/25 06:40:50;;;;;;;6.45;3.22;;;16.40;99.90;;;;;;4986830;28;20038;-64
2023/07/25 06:43:15;;;;;;;7.55;3.20;;;16.30;99.90;;;;;;4984999;28;20120;-63
2023/07/25 06:45:41;;;;;;;8.18;2.80;;;16.30;99.90;;;;;;4979243;28;20030;-65
2023/07/25 06:48:06;;;;;;;11.25;2.92;;;16.50;99.90;;;;;;4983342;28;20034;-64
2023/07/25 06:50:33;;;;;;;14.10;2.55;;;16.50;99.90;;;;;;4982017;28;20093;-65
2023/07/25 06:52:59;;;;;;;7.30;2.60;;;16.40;99.90;;;;;;4964154;28;20519;-64
2023/07/25 06:55:25;;;;;;;10.45;3.08;;;16.40;99.90;;;;;;4957991;28;20481;-64
2023/07/25 06:57:51;;;;;;;8.32;2.90;;;16.40;99.90;;;;;;4988482;28;20055;-65
2023/07/25 07:00:18;;;;;;;9.30;3.30;;;16.30;99.90;;;;;;4989005;28;20065;-63
2023/07/25 07:02:44;;;;;;;5.63;2.50;;;16.30;99.90;;;;;;4965005;28;20196;-64
2023/07/25 07:05:10;;;;;;;4.43;2.78;;;16.30;99.90;;;;;;4972764;28;20032;-65
2023/07/25 07:07:40;;;;;;;6.88;2.78;;;16.40;99.90;;;;;;4984381;28;20018;-63
2023/07/25 07:10:06;;;;;;;6.75;3.45;;;16.40;99.90;;;;;;4984162;28;20031;-63
2023/07/25 07:12:32;;;;;;;7.75;3.17;;;16.50;99.90;;;;;;4974284;28;20780;-65
2023/07/25 07:14:59;;;;;;;5.13;2.72;;;16.50;99.90;;;;;;4983962;28;20026;-64
2023/07/25 07:17:25;;;;;;;5.85;2.72;;;16.50;99.90;;;;;;4980202;28;20065;-63
2023/07/25 07:19:53;;;;;;;5.80;2.70;;;16.70;99.90;;;;;;4983104;28;20500;-65
2023/07/25 07:22:19;;;;;;;6.68;3.13;;;16.70;99.90;;;;;;4987293;28;20037;-65
2023/07/25 07:24:44;;;;;;;5.90;2.63;;;16.80;99.90;;;;;;4966704;28;20411;-63
2023/07/25 07:27:10;;;;;;;4.43;2.78;;;16.90;99.90;;;;;;4983964;28;20074;-65
2023/07/25 07:29:36;;;;;;;4.68;2.33;;;17.00;99.90;;;;;;4989068;28;20033;-63
2023/07/25 07:32:03;;;;;;;10.93;2.28;;;17.20;99.90;;;;;;4990041;28;20026;-65
2023/07/25 07:34:28;;;;;;;4.72;2.03;;;17.20;99.90;;;;;;4987862;28;20029;-64
2023/07/25 07:36:54;;;;;;;6.47;2.13;;;17.10;99.90;;;;;;4987734;28;20034;-65
2023/07/25 07:39:19;;;;;;;7.28;2.30;;;17.20;99.90;;;;;;4989543;28;20035;-65
2023/07/25 07:41:45;;;;;;;7.13;2.08;;;17.40;99.90;;;;;;4989605;28;20047;-63
2023/07/25 07:44:10;;;;;;;2.78;1.98;;;17.40;99.90;;;;;;4986436;28;20030;-63
2023/07/25 07:46:36;;;;;;;8.25;2.17;;;17.60;99.90;;;;;;4990144;28;20053;-65
2023/07/25 07:49:02;;;;;;;10.18;2.17;;;17.60;99.90;;;;;;4986355;28;20101;-64
2023/07/25 07:51:28;;;;;;;8.20;2.30;;;17.80;99.90;;;;;;4986035;28;20133;-64
2023/07/25 07:53:54;;;;;;;2.72;1.60;;;17.70;99.90;;;;;;4988452;28;20063;-66
2023/07/25 07:56:20;;;;;;;12.73;2.30;;;17.90;99.90;;;;;;4988890;28;20033;-63
2023/07/25 07:58:46;;;;;;;3.70;1.25;;;17.80;99.90;;;;;;4985521;28;20468;-63
2023/07/25 08:01:21;;;;;;;4.63;1.40;;;18.00;99.90;;;;;;4980178;28;20090;-64
2023/07/25 08:03:47;;;;;;;4.60;1.70;;;18.00;99.90;;;;;;4978222;28;20022;-63
2023/07/25 08:06:13;;;;;;;5.80;1.27;;;18.30;99.90;;;;;;4983505;28;20053;-66
2023/07/25 08:08:40;;;;;;;6.45;1.63;;;18.40;99.90;;;;;;4981755;28;20023;-64
2023/07/25 08:11:06;;;;;;;7.00;1.55;;;18.40;99.90;;;;;;4980700;28;20034;-65
2023/07/25 08:13:32;;;;;;;8.32;1.63;;;18.50;99.90;;;;;;4980863;28;20527;-63
2023/07/25 08:15:57;;;;;;;6.05;1.60;;;18.40;99.90;;;;;;4960809;28;20053;-63
2023/07/25 08:18:23;;;;;;;4.00;1.30;;;18.40;99.90;;;;;;4979436;28;20114;-59
2023/07/25 08:20:57;;;;;;;5.18;1.35;;;18.40;99.90;;;;;;4981559;28;20030;-64
2023/07/25 08:23:24;;;;;;;5.28;1.58;;;18.50;99.90;;;;;;4979831;28;20026;-63
2023/07/25 08:25:49;;;;;;;8.13;1.92;;;18.50;99.90;;;;;;4959703;28;20054;-64
2023/07/25 08:28:18;;;;;;;9.23;1.77;;;18.60;99.90;;;;;;4981896;28;20475;-65
2023/07/25 08:30:44;;;;;;;3.15;1.13;;;18.90;99.90;;;;;;4978963;28;20023;-64
2023/07/25 08:33:12;;;;;;;8.35;1.48;;;19.10;99.90;;;;;;4978259;28;20023;-64
2023/07/25 08:35:38;;;;;;;13.55;1.60;;;19.00;99.90;;;;;;4980031;28;20038;-64
2023/07/25 08:38:05;;;;;;;3.60;1.15;;;19.10;99.90;;;;;;4979152;28;20093;-65
2023/07/25 08:40:30;;;;;;;5.75;1.52;;;18.90;99.90;;;;;;4957657;28;20057;-65
2023/07/25 08:43:08;;;;;;;3.47;1.00;;;18.90;99.90;;;;;;4978877;28;20113;-64
2023/07/25 08:45:35;;;;;;;7.20;1.13;;;18.80;99.90;;;;;;4978727;28;20120;-63
2023/07/25 08:48:04;;;;;;;6.40;1.48;;;18.60;99.90;;;;;;4973948;28;20031;-65
2023/07/25 08:50:31;;;;;;;5.07;1.70;;;18.60;99.90;;;;;;4976237;28;20023;-64
2023/07/25 08:52:59;;;;;;;4.82;1.50;;;18.40;99.90;;;;;;4978955;28;20388;-65
2023/07/25 08:55:26;;;;;;;4.68;1.60;;;18.40;99.90;;;;;;4976266;28;20026;-65
2023/07/25 08:57:52;;;;;;;4.60;1.25;;;18.50;99.90;;;;;;4979025;28;20026;-63
2023/07/25 09:00:18;;;;;;;5.15;1.10;;;18.90;99.90;;;;;;4975828;28;20812;-65
2023/07/25 09:02:43;;;;;;;5.05;1.17;;;18.90;99.90;;;;;;4982314;28;20109;-64
2023/07/25 09:05:09;;;;;;;7.43;1.58;;;19.10;99.90;;;;;;4978697;28;20031;-64
2023/07/25 09:07:35;;;;;;;5.75;1.67;;;19.10;99.90;;;;;;4982065;28;20038;-64
2023/07/25 09:10:01;;;;;;;5.30;1.05;;;19.20;99.90;;;;;;4978497;28;20396;-65
2023/07/25 09:12:27;;;;;;;3.53;0.82;;;19.40;99.90;;;;;;4961251;28;20482;-64
2023/07/25 09:14:52;;;;;;;6.68;1.13;;;19.40;99.90;;;;;;4983421;28;20098;-65
2023/07/25 09:17:21;;;;;;;4.22;1.13;;;19.10;99.90;;;;;;4979822;28;20034;-64
2023/07/25 09:19:47;;;;;;;2.65;0.98;;;19.40;99.90;;;;;;4979329;28;20457;-64
2023/07/25 09:22:30;;;;;;;2.92;1.10;;;19.20;99.90;;;;;;4963222;28;20038;-65
2023/07/25 09:24:57;;;;;;;8.23;1.20;;;19.60;99.10;;;;;;4974892;28;20084;-63
2023/07/25 09:27:22;;;;;;;4.97;1.20;;;19.70;99.40;;;;;;4984188;28;20410;-64
2023/07/25 09:29:52;;;;;;;5.18;1.27;;;19.70;99.90;;;;;;4986005;28;20026;-64
2023/07/25 09:32:25;;;;;;;7.18;1.10;;;20.20;99.10;;;;;;4989131;28;20038;-64
2023/07/25 09:34:58;;;;;;;4.30;1.08;;;20.00;99.70;;;;;;4989884;28;20045;-64
2023/07/25 09:37:24;;;;;;;6.00;1.20;;;20.00;97.50;;;;;;4983200;28;20116;-65
2023/07/25 09:39:50;;;;;;;9.15;1.58;;;19.90;97.90;;;;;;4983090;28;20030;-64
2023/07/25 09:42:19;;;;;;;11.40;2.08;;;19.80;97.20;;;;;;4983211;28;20034;-65
2023/07/25 09:44:50;;;;;;;2.30;1.00;;;19.60;98.20;;;;;;4985610;28;20459;-64
2023/07/25 09:47:24;;;;;;;2.75;0.95;;;20.00;98.40;;;;;;4984057;28;20062;-64
2023/07/25 09:49:51;;;;;;;;;;;20.10;96.50;;;;;;4980104;28;20424;-65
2023/07/25 09:52:16;;;;;;;6.10;1.20;;;20.20;97.10;;;;;;4985714;28;19914;-64
2023/07/25 09:54:42;;;;;;;2.70;1.40;;;20.40;96.20;;;;;;4968573;28;20030;-65
2023/07/25 09:57:09;;;;;;;2.92;1.08;;;20.50;94.60;;;;;;4986395;28;20105;-64
2023/07/25 09:59:35;;;;;;;2.65;1.00;;;20.10;98.60;;;;;;4983551;28;20062;-65
2023/07/25 10:02:01;;;;;;;2.20;1.30;;;20.20;97.80;;;;;;4981881;28;20045;-64
2023/07/25 10:04:27;;;;;;;4.32;1.40;;;20.50;96.70;;;;;;4963986;28;20026;-64
2023/07/25 10:06:53;;;;;;;3.78;1.15;;;20.30;97.60;;;;;;4977939;28;20515;-64
2023/07/25 10:09:19;;;;;;;4.85;1.05;;;20.60;96.10;;;;;;4984034;28;20113;-63
2023/07/25 10:11:48;;;;;;;2.45;1.00;;;20.70;96.90;;;;;;4978122;28;20027;-64
2023/07/25 10:14:14;;;;;;;4.15;1.17;;;20.80;95.60;;;;;;4983635;28;20030;-64
2023/07/25 10:16:41;;;;;;;5.13;1.67;;;20.60;94.40;;;;;;4994165;28;20492;-65
2023/07/25 10:19:06;;;;;;;3.92;1.05;;;20.70;94.00;;;;;;4984438;28;20109;-64
2023/07/25 10:21:52;;;;;;;7.60;1.42;;;20.40;96.80;;;;;;4981429;28;20130;-64
2023/07/25 10:24:19;;;;;;;3.42;1.02;;;20.20;96.40;;;;;;4989766;28;20038;-65
2023/07/25 10:27:12;;;;;;;3.60;1.60;;;20.20;98.00;;;;;;4986409;28;20038;-63
2023/07/25 10:29:43;;;;;;;4.13;1.27;;;20.40;97.50;;;;;;4970609;28;20041;-63
2023/07/25 10:32:15;;;;;;;3.50;1.15;;;20.90;94.80;;;;;;4999002;28;20023;-64
2023/07/25 10:35:00;;;;;;;1.92;0.85;;;20.90;95.30;;;;;;4984201;28;20033;-65
2023/07/25 10:37:28;;;;;;;3.55;1.40;;;21.20;95.70;;;;;;4986064;28;20507;-64
2023/07/25 10:40:02;;;;;;;2.65;1.00;;;21.30;93.30;;;;;;4989729;28;20078;-63
2023/07/25 10:42:41;;;;;;;5.13;1.40;;;20.80;93.50;;;;;;4965429;28;20027;-64
2023/07/25 10:45:07;;;;;;;4.70;0.70;;;20.90;95.60;;;;;;4985291;28;20034;-65
2023/07/25 10:47:45;;;;;;;5.60;1.30;;;20.70;93.40;;;;;;4986785;28;20050;-63
2023/07/25 10:50:11;;;;;;;7.43;1.10;;;20.80;92.80;;;;;;4986117;28;20125;-64
2023/07/25 10:52:46;;;;;;;4.70;1.88;;;20.50;96.00;;;;;;4974032;28;20106;-64
2023/07/25 10:55:13;;;;;;;3.83;1.35;;;20.60;95.30;;;;;;4983901;28;20038;-66
2023/07/25 10:57:38;;;;;;;8.27;1.15;;;20.80;97.80;;;;;;4988940;28;20027;-64
2023/07/25 11:00:08;;;;;;;3.17;0.77;;;21.30;92.90;;;;;;4991696;28;20033;-65
2023/07/25 11:02:40;;;;;;;3.95;1.23;;;21.60;92.30;;;;;;4988180;28;20031;-65
2023/07/25 11:05:12;;;;;;;4.22;1.23;;;21.20;92.60;;;;;;4989964;28;20414;-64
2023/07/25 11:07:46;;;;;;;3.03;1.20;;;21.20;91.40;;;;;;4983422;28;20030;-66
2023/07/25 11:10:23;;;;;;;4.00;1.30;;;21.70;91.50;;;;;;4980971;28;20031;-66
2023/07/25 11:12:56;;;;;;;5.22;1.00;;;21.70;91.00;;;;;;4963536;28;20026;-65
2023/07/25 11:15:22;;;;;;;2.95;0.90;;;21.50;90.40;;;;;;4985978;28;20042;-64
2023/07/25 11:17:48;;;;;;;1.92;1.10;;;21.40;90.50;;;;;;4986150;28;20559;-64
2023/07/25 11:20:19;;;;;;;1.45;0.90;;;21.30;91.50;;;;;;4990136;28;20062;-65
2023/07/25 11:22:51;;;;;;;7.28;2.45;;;21.00;90.30;;;;;;4986740;28;20045;-64
2023/07/25 11:25:18;;;;;;;3.85;1.13;;;20.70;90.30;;;;;;4970065;28;20030;-64
2023/07/25 11:27:47;;;;;;;1.58;0.98;;;20.90;91.20;;;;;;4977049;28;20030;-65
2023/07/25 11:30:14;;;;;;;10.20;1.58;;;20.90;91.80;;;;;;4989869;28;20619;-65
2023/07/25 11:32:47;;;;;;;4.63;0.98;;;21.00;92.60;;;;;;4979876;28;20031;-64
2023/07/25 11:35:13;;;;;;;3.03;0.90;;;21.70;92.40;;;;;;4985862;28;20053;-62
2023/07/25 11:37:40;;;;;;;8.68;1.40;;;22.10;90.60;;;;;;4987360;28;20029;-64
2023/07/25 11:40:13;;;;;;;3.20;1.00;;;22.40;91.80;;;;;;4987905;28;20023;-65
2023/07/25 11:42:40;;;;;;;;;;;21.90;92.40;;;;;;4969070;28;20030;-66
2023/07/25 11:45:06;;;;;;;2.70;1.17;;;22.00;90.90;;;;;;4987291;28;19909;-64
2023/07/25 11:47:32;;;;;;;6.47;1.40;;;22.10;90.60;;;;;;4975052;28;20060;-62
2023/07/25 11:49:57;;;;;;;2.78;1.20;;;21.80;88.00;;;;;;4989304;28;20026;-64
2023/07/25 11:52:23;;;;;;;6.75;1.73;;;21.70;90.10;;;;;;4970471;28;20034;-61
2023/07/25 11:54:49;;;;;;;3.05;1.08;;;20.90;91.40;;;;;;4986784;28;20049;-63
2023/07/25 11:57:15;;;;;;;2.15;1.00;;;20.50;91.80;;;;;;4982818;28;20109;-64
2023/07/25 11:59:41;;;;;;;3.47;1.30;;;20.60;91.20;;;;;;4984967;28;20042;-65
2023/07/25 12:02:07;;;;;;;2.55;1.00;;;20.50;91.20;;;;;;4982791;28;20042;-65
2023/07/25 12:04:40;;;;;;;4.93;1.20;;;20.20;92.30;;;;;;4989015;28;20030;-63
2023/07/25 12:07:06;;;;;;;4.38;1.15;;;19.90;92.40;;;;;;4988125;28;20025;-64
2023/07/25 12:09:32;;;;;;;6.38;1.40;;;20.10;93.30;;;;;;4982568;28;20044;-64
2023/07/25 12:11:57;;;;;;;5.07;1.30;;;20.40;91.90;;;;;;4980181;28;20034;-63
2023/07/25 12:14:23;;;;;;;4.70;1.65;;;20.70;92.10;;;;;;4983224;28;20085;-62
2023/07/25 12:16:49;;;;;;;3.35;1.10;;;21.10;90.70;;;;;;4986807;28;20026;-65
2023/07/25 12:19:15;;;;;;;9.80;1.30;;;21.40;89.40;;;;;;4987103;28;20093;-61
2023/07/25 12:21:46;;;;;;;2.80;1.05;;;21.70;88.00;;;;;;4974512;28;20026;-63
2023/07/25 12:24:14;;;;;;;3.92;1.10;;;21.80;89.30;;;;;;4981196;28;20455;-65
2023/07/25 12:26:44;;;;;;;8.55;1.85;;;22.00;86.60;;;;;;4998130;28;20093;-63
2023/07/25 12:29:21;;;;;;;3.95;1.00;;;22.00;87.30;;;;;;4966760;28;20366;-64
2023/07/25 12:31:47;;;;;;;1.88;1.02;;;21.60;86.60;;;;;;4988151;28;20440;-65
2023/07/25 12:34:18;;;;;;;1.95;0.98;;;21.50;87.30;;;;;;4986665;28;20061;-64
2023/07/25 12:36:44;;;;;;;3.92;1.50;;;21.40;87.30;;;;;;4983458;28;20025;-63
2023/07/25 12:39:10;;;;;;;2.83;1.63;;;21.10;90.50;;;;;;4989710;28;20023;-64
2023/07/25 12:41:35;;;;;;;2.70;1.25;;;20.90;90.30;;;;;;4988480;28;20554;-64